HAZ215 OMDB-ZSHC
Flight info
| Callsign | HAZ215 |
|---|---|
| Flight time | N/A |
| Altitude | 33000 |
| Route | IVURO M428 TARBO Z440 DAMUM B524 ALPOR M504 NODUT/N0466F350 M504 TELEM A791 BEGUM/N0463F370 A791 CEA B465 CTG A599 LINSO/K0845S1190 A599 SGM A581 WHA R343 UPLEL W95 SAPIN A470 IGRAT IGRAT62 |
| Aircraft | E190/M-SDE1E2E3FGHIJ3J4J7P2RWXY/LB1D1G1 |
Departure
| Time | N/A |
|---|---|
| Airport | Dubai International Airport (OMDB) |
Arrival
| Time | 2026-05-05 01:40 |
|---|---|
| Airport | Hangzhou Xiaoshan International Airport (ZSHC) |
| Time | Latitude | Longitude | Altitude | Speed | Heading |
|---|---|---|---|---|---|
| 2026-05-05 01:13 | 30.18059 | 120.69022 | 7936 ft | 192 kts | 63° |
| 2026-05-05 01:13 | 30.18643 | 120.70347 | 7890 ft | 178 kts | 63° |
| 2026-05-05 01:13 | 30.19204 | 120.71621 | 7859 ft | 177 kts | 64° |
| 2026-05-05 01:13 | 30.19772 | 120.72911 | 7768 ft | 179 kts | 64° |
| 2026-05-05 01:14 | 30.20335 | 120.74190 | 7613 ft | 179 kts | 64° |
| 2026-05-05 01:14 | 30.20904 | 120.75481 | 7427 ft | 179 kts | 64° |
| 2026-05-05 01:14 | 30.21747 | 120.76511 | 7219 ft | 178 kts | 23° |
| 2026-05-05 01:14 | 30.22969 | 120.76558 | 7038 ft | 181 kts | 341° |
| 2026-05-05 01:15 | 30.24112 | 120.75970 | 6841 ft | 182 kts | 336° |
| 2026-05-05 01:15 | 30.25263 | 120.75332 | 6604 ft | 182 kts | 335° |
| 2026-05-05 01:15 | 30.26397 | 120.74696 | 6391 ft | 180 kts | 335° |
| 2026-05-05 01:15 | 30.27498 | 120.74066 | 6195 ft | 180 kts | 335° |
| 2026-05-05 01:16 | 30.28610 | 120.73424 | 5999 ft | 180 kts | 335° |
| 2026-05-05 01:16 | 30.29725 | 120.72776 | 5871 ft | 171 kts | 335° |
| 2026-05-05 01:16 | 30.30786 | 120.72157 | 5657 ft | 168 kts | 335° |
| 2026-05-05 01:16 | 30.31816 | 120.71556 | 5440 ft | 166 kts | 334° |
| 2026-05-05 01:17 | 30.32853 | 120.70950 | 5252 ft | 166 kts | 335° |
| 2026-05-05 01:17 | 30.33896 | 120.70342 | 5067 ft | 167 kts | 334° |
| 2026-05-05 01:17 | 30.34927 | 120.69728 | 4875 ft | 167 kts | 329° |
| 2026-05-05 01:17 | 30.35619 | 120.68679 | 4675 ft | 167 kts | 284° |
| 2026-05-05 01:18 | 30.35538 | 120.67357 | 4456 ft | 165 kts | 247° |
| 2026-05-05 01:18 | 30.35052 | 120.66170 | 4247 ft | 164 kts | 241° |
| 2026-05-05 01:18 | 30.34537 | 120.64977 | 4016 ft | 163 kts | 241° |
| 2026-05-05 01:18 | 30.34030 | 120.63817 | 3789 ft | 161 kts | 241° |
| 2026-05-05 01:19 | 30.33526 | 120.62670 | 3555 ft | 155 kts | 241° |
| 2026-05-05 01:19 | 30.33045 | 120.61579 | 3333 ft | 149 kts | 241° |
| 2026-05-05 01:19 | 30.32577 | 120.60522 | 3129 ft | 146 kts | 240° |
| 2026-05-05 01:19 | 30.32110 | 120.59468 | 2936 ft | 147 kts | 241° |
| 2026-05-05 01:20 | 30.31647 | 120.58424 | 2747 ft | 148 kts | 240° |
| 2026-05-05 01:20 | 30.31184 | 120.57379 | 2536 ft | 140 kts | 240° |
| 2026-05-05 01:20 | 30.30757 | 120.56417 | 2316 ft | 128 kts | 239° |
| 2026-05-05 01:20 | 30.30353 | 120.55508 | 2149 ft | 126 kts | 240° |
| 2026-05-05 01:21 | 30.29956 | 120.54614 | 2008 ft | 126 kts | 239° |
| 2026-05-05 01:21 | 30.29554 | 120.53711 | 1852 ft | 126 kts | 240° |
| 2026-05-05 01:21 | 30.29146 | 120.52792 | 1689 ft | 126 kts | 239° |
| 2026-05-05 01:21 | 30.28740 | 120.51880 | 1520 ft | 125 kts | 240° |
| 2026-05-05 01:22 | 30.28337 | 120.50974 | 1350 ft | 124 kts | 240° |
| 2026-05-05 01:22 | 30.27935 | 120.50075 | 1199 ft | 125 kts | 240° |
| 2026-05-05 01:22 | 30.27544 | 120.49188 | 1028 ft | 124 kts | 241° |
| 2026-05-05 01:22 | 30.27151 | 120.48300 | 862 ft | 123 kts | 240° |
| 2026-05-05 01:23 | 30.26761 | 120.47427 | 689 ft | 122 kts | 242° |
| 2026-05-05 01:23 | 30.26392 | 120.46545 | 580 ft | 118 kts | 243° |
| 2026-05-05 01:23 | 30.26003 | 120.45699 | 425 ft | 123 kts | 238° |
| 2026-05-05 01:23 | 30.25597 | 120.44843 | 232 ft | 116 kts | 240° |
| 2026-05-05 01:24 | 30.25217 | 120.43998 | 73 ft | 118 kts | 241° |
| 2026-05-05 01:24 | 30.24857 | 120.43169 | 29 ft | 105 kts | 244° |
| 2026-05-05 01:24 | 30.24529 | 120.42405 | 174 ft | 113 kts | 241° |
| 2026-05-05 01:24 | 30.24092 | 120.41573 | 457 ft | 138 kts | 230° |
| 2026-05-05 01:25 | 30.23347 | 120.40715 | 853 ft | 161 kts | 218° |
| 2026-05-05 01:25 | 30.22374 | 120.39946 | 1400 ft | 177 kts | 218° |
| 2026-05-05 01:25 | 30.21854 | 120.38757 | 2276 ft | 173 kts | 267° |
| 2026-05-05 01:25 | 30.22215 | 120.37498 | 3166 ft | 165 kts | 303° |
| 2026-05-05 01:26 | 30.22844 | 120.36436 | 3833 ft | 168 kts | 300° |
| 2026-05-05 01:26 | 30.23546 | 120.35299 | 4431 ft | 179 kts | 312° |
| 2026-05-05 01:26 | 30.24594 | 120.34471 | 4621 ft | 209 kts | 335° |
| 2026-05-05 01:26 | 30.26002 | 120.33830 | 5333 ft | 210 kts | 341° |
| 2026-05-05 01:27 | 30.27432 | 120.33318 | 5688 ft | 222 kts | 344° |
| 2026-05-05 01:27 | 30.28871 | 120.32843 | 5397 ft | 207 kts | 347° |
| 2026-05-05 01:27 | 30.30240 | 120.32728 | 5176 ft | 190 kts | 6° |
| 2026-05-05 01:27 | 30.31518 | 120.33144 | 4709 ft | 187 kts | 31° |
| 2026-05-05 01:28 | 30.32339 | 120.34076 | 4307 ft | 183 kts | 60° |
| 2026-05-05 01:28 | 30.32785 | 120.35371 | 4286 ft | 165 kts | 72° |
| 2026-05-05 01:28 | 30.33159 | 120.36610 | 4420 ft | 165 kts | 72° |
| 2026-05-05 01:28 | 30.33545 | 120.37869 | 4670 ft | 169 kts | 72° |
| 2026-05-05 01:29 | 30.33957 | 120.39148 | 5067 ft | 171 kts | 70° |
| 2026-05-05 01:29 | 30.34430 | 120.40421 | 4959 ft | 176 kts | 67° |
| 2026-05-05 01:29 | 30.34971 | 120.41705 | 4648 ft | 171 kts | 65° |
| 2026-05-05 01:29 | 30.35502 | 120.42905 | 4565 ft | 168 kts | 64° |
| 2026-05-05 01:30 | 30.36059 | 120.44096 | 4486 ft | 168 kts | 63° |
| 2026-05-05 01:30 | 30.36643 | 120.45263 | 4485 ft | 168 kts | 61° |
| 2026-05-05 01:30 | 30.37275 | 120.46435 | 4524 ft | 171 kts | 58° |
| 2026-05-05 01:30 | 30.37878 | 120.47588 | 4559 ft | 167 kts | 64° |
| 2026-05-05 01:31 | 30.38413 | 120.48807 | 4733 ft | 171 kts | 65° |
| 2026-05-05 01:31 | 30.38933 | 120.50051 | 4501 ft | 175 kts | 66° |
| 2026-05-05 01:31 | 30.39463 | 120.51308 | 4162 ft | 172 kts | 65° |
| 2026-05-05 01:31 | 30.39984 | 120.52520 | 3938 ft | 161 kts | 65° |
| 2026-05-05 01:32 | 30.40492 | 120.53659 | 3872 ft | 158 kts | 64° |
| 2026-05-05 01:32 | 30.41014 | 120.54781 | 3712 ft | 158 kts | 64° |
| 2026-05-05 01:32 | 30.41548 | 120.55920 | 3427 ft | 161 kts | 66° |
| 2026-05-05 01:32 | 30.41912 | 120.57104 | 3311 ft | 144 kts | 80° |
| 2026-05-05 01:33 | 30.41763 | 120.58209 | 3334 ft | 140 kts | 129° |
| 2026-05-05 01:33 | 30.41044 | 120.58974 | 3247 ft | 139 kts | 142° |
| 2026-05-05 01:33 | 30.40231 | 120.59637 | 2923 ft | 154 kts | 147° |
| 2026-05-05 01:33 | 30.39355 | 120.60220 | 2860 ft | 138 kts | 153° |
| 2026-05-05 01:34 | 30.38447 | 120.60643 | 2505 ft | 140 kts | 160° |
| 2026-05-05 01:34 | 30.37557 | 120.60991 | 2679 ft | 135 kts | 160° |
| 2026-05-05 01:34 | 30.36661 | 120.61356 | 2897 ft | 139 kts | 159° |
| 2026-05-05 01:34 | 30.35753 | 120.61749 | 2850 ft | 141 kts | 158° |
| 2026-05-05 01:35 | 30.34837 | 120.62144 | 2728 ft | 142 kts | 160° |
| 2026-05-05 01:35 | 30.33897 | 120.62420 | 2961 ft | 144 kts | 172° |
| 2026-05-05 01:35 | 30.32942 | 120.62116 | 2816 ft | 144 kts | 218° |
| 2026-05-05 01:35 | 30.32458 | 120.61101 | 2858 ft | 148 kts | 252° |
| 2026-05-05 01:36 | 30.32133 | 120.59952 | 2851 ft | 148 kts | 246° |
| 2026-05-05 01:36 | 30.31738 | 120.58846 | 2748 ft | 148 kts | 243° |
| 2026-05-05 01:36 | 30.31310 | 120.57774 | 2583 ft | 142 kts | 242° |
| 2026-05-05 01:36 | 30.30887 | 120.56771 | 2390 ft | 137 kts | 240° |
| 2026-05-05 01:37 | 30.30472 | 120.55812 | 2222 ft | 136 kts | 240° |
| 2026-05-05 01:37 | 30.30045 | 120.54840 | 2051 ft | 137 kts | 239° |
| 2026-05-05 01:37 | 30.29607 | 120.53849 | 1878 ft | 136 kts | 239° |
| 2026-05-05 01:37 | 30.29174 | 120.52872 | 1699 ft | 137 kts | 240° |
| 2026-05-05 01:38 | 30.28741 | 120.51902 | 1520 ft | 136 kts | 240° |
| 2026-05-05 01:38 | 30.28324 | 120.50960 | 1346 ft | 135 kts | 240° |
| 2026-05-05 01:38 | 30.27891 | 120.49979 | 1170 ft | 131 kts | 240° |
| 2026-05-05 01:38 | 30.27468 | 120.49026 | 991 ft | 130 kts | 240° |
| 2026-05-05 01:39 | 30.27055 | 120.48101 | 822 ft | 128 kts | 241° |
| 2026-05-05 01:39 | 30.26645 | 120.47179 | 654 ft | 131 kts | 240° |
| 2026-05-05 01:39 | 30.26225 | 120.46237 | 493 ft | 134 kts | 241° |
| 2026-05-05 01:39 | 30.25815 | 120.45314 | 316 ft | 126 kts | 242° |
| 2026-05-05 01:40 | 30.25416 | 120.44396 | 100 ft | 131 kts | 237° |
| 2026-05-05 01:40 | 30.25004 | 120.43514 | 29 ft | 119 kts | 241° |
| 2026-05-05 01:40 | 30.24705 | 120.42831 | 29 ft | 72 kts | 242° |
| 2026-05-05 01:40 | 30.24536 | 120.42451 | 29 ft | 34 kts | 242° |
| 2026-05-05 01:41 | 30.24478 | 120.42339 | 29 ft | 7 kts | 232° |
| 2026-05-05 01:41 | 30.24410 | 120.42261 | 29 ft | 18 kts | 222° |
| 2026-05-05 01:41 | 30.24349 | 120.42207 | 29 ft | 8 kts | 214° |
| 2026-05-05 01:41 | 30.24314 | 120.42179 | 29 ft | 0 kts | 215° |
| 2026-05-05 01:42 | 30.24307 | 120.42174 | 29 ft | 2 kts | 215° |
| 2026-05-05 01:42 | 30.24289 | 120.42158 | 29 ft | 4 kts | 215° |
| 2026-05-05 01:42 | 30.24262 | 120.42134 | 29 ft | 5 kts | 219° |
| 2026-05-05 01:42 | 30.24226 | 120.42100 | 29 ft | 7 kts | 219° |
| 2026-05-05 01:43 | 30.24182 | 120.42057 | 29 ft | 9 kts | 223° |
| 2026-05-05 01:43 | 30.24142 | 120.41993 | 29 ft | 10 kts | 242° |
| 2026-05-05 01:43 | 30.24107 | 120.41908 | 29 ft | 12 kts | 242° |
| 2026-05-05 01:43 | 30.24064 | 120.41818 | 29 ft | 13 kts | 242° |
| 2026-05-05 01:44 | 30.24019 | 120.41711 | 29 ft | 15 kts | 242° |
| 2026-05-05 01:44 | 30.23968 | 120.41596 | 29 ft | 16 kts | 243° |
| 2026-05-05 01:44 | 30.23910 | 120.41470 | 29 ft | 18 kts | 243° |
| 2026-05-05 01:44 | 30.23852 | 120.41335 | 29 ft | 19 kts | 241° |
| 2026-05-05 01:45 | 30.23793 | 120.41193 | 29 ft | 20 kts | 246° |
| 2026-05-05 01:45 | 30.23725 | 120.41133 | 29 ft | 11 kts | 161° |
| 2026-05-05 01:45 | 30.23662 | 120.41177 | 29 ft | 4 kts | 148° |
| 2026-05-05 01:45 | 30.23659 | 120.41178 | 29 ft | 0 kts | 180° |
| 2026-05-05 01:46 | 30.23656 | 120.41149 | 29 ft | 6 kts | 282° |
| 2026-05-05 01:46 | 30.23641 | 120.41082 | 29 ft | 13 kts | 245° |
| 2026-05-05 01:46 | 30.23585 | 120.40955 | 29 ft | 13 kts | 231° |
| 2026-05-05 01:46 | 30.23536 | 120.40965 | 29 ft | 8 kts | 148° |
| 2026-05-05 01:47 | 30.23482 | 120.41003 | 29 ft | 10 kts | 149° |
| 2026-05-05 01:47 | 30.23413 | 120.41045 | 29 ft | 11 kts | 148° |
| 2026-05-05 01:47 | 30.23407 | 120.41097 | 29 ft | 6 kts | 60° |
| 2026-05-05 01:47 | 30.23435 | 120.41154 | 29 ft | 10 kts | 63° |
| 2026-05-05 01:48 | 30.23477 | 120.41245 | 29 ft | 11 kts | 60° |
| 2026-05-05 01:48 | 30.23484 | 120.41299 | 29 ft | 5 kts | 137° |
| 2026-05-05 01:48 | 30.23451 | 120.41319 | 29 ft | 4 kts | 152° |
| 2026-05-05 01:48 | 30.23447 | 120.41322 | 29 ft | 0 kts | 152° |